createdAt,value
2017-04-06T00:00:42.825Z,13.04
2017-04-06T00:01:43.430Z,13.01
2017-04-06T00:02:44.043Z,13.04
2017-04-06T00:03:44.642Z,13.00
2017-04-06T00:04:45.255Z,12.90
2017-04-06T00:05:45.856Z,12.91
2017-04-06T00:06:46.451Z,12.83
2017-04-06T00:07:47.053Z,12.68
2017-04-06T00:08:47.649Z,12.76
2017-04-06T00:09:48.246Z,12.54
2017-04-06T00:10:48.845Z,12.57
2017-04-06T00:11:49.464Z,12.58
2017-04-06T00:12:50.058Z,12.60
2017-04-06T00:13:50.657Z,12.64
2017-04-06T00:14:51.254Z,12.60
2017-04-06T00:15:51.850Z,12.57
2017-04-06T00:16:52.456Z,12.50
2017-04-06T00:17:53.054Z,12.45
2017-04-06T00:18:53.648Z,12.36
2017-04-06T00:19:54.246Z,12.24
2017-04-06T00:20:54.843Z,12.27
2017-04-06T00:21:55.445Z,12.25
2017-04-06T00:22:56.064Z,12.06
2017-04-06T00:23:56.678Z,12.00
2017-04-06T00:24:57.274Z,12.03
2017-04-06T00:25:57.870Z,11.95
2017-04-06T00:26:58.468Z,11.81
2017-04-06T00:27:59.065Z,11.81
2017-04-06T00:28:59.668Z,11.77
2017-04-06T00:30:00.265Z,11.68
2017-04-06T00:31:00.866Z,11.54
2017-04-06T00:32:01.465Z,11.51
2017-04-06T00:33:02.060Z,11.45
2017-04-06T00:34:02.668Z,11.37
2017-04-06T00:35:03.258Z,11.27
2017-04-06T00:36:03.872Z,11.36
2017-04-06T00:37:04.483Z,11.29
2017-04-06T00:38:05.083Z,11.29
2017-04-06T00:39:05.676Z,11.25
2017-04-06T00:40:06.280Z,11.19
2017-04-06T00:41:06.874Z,11.08
2017-04-06T00:42:07.475Z,11.04
2017-04-06T00:43:08.068Z,10.99
2017-04-06T00:44:08.666Z,11.00
2017-04-06T00:45:09.261Z,11.07
2017-04-06T00:46:09.864Z,10.87
2017-04-06T00:47:10.465Z,10.87
2017-04-06T00:48:11.060Z,10.78
2017-04-06T00:49:11.655Z,10.78
2017-04-06T00:50:12.256Z,10.86
2017-04-06T00:51:12.850Z,10.82
2017-04-06T00:52:13.449Z,10.69
2017-04-06T00:53:14.060Z,10.69
2017-04-06T00:54:14.661Z,10.69
2017-04-06T00:55:15.256Z,10.71
2017-04-06T00:56:15.852Z,10.67
2017-04-06T00:57:16.449Z,10.74
2017-04-06T00:58:17.045Z,10.69
2017-04-06T00:59:17.642Z,10.64
2017-04-06T01:00:18.238Z,10.64
2017-04-06T01:01:18.850Z,10.63
2017-04-06T01:02:19.467Z,10.63
2017-04-06T01:03:20.061Z,10.68
2017-04-06T01:04:20.673Z,10.59
2017-04-06T01:05:21.268Z,10.54
2017-04-06T01:06:21.871Z,10.53
2017-04-06T01:07:22.469Z,10.53
2017-04-06T01:08:23.064Z,10.41
2017-04-06T01:09:23.666Z,10.49
2017-04-06T01:10:24.262Z,10.49
2017-04-06T01:11:24.858Z,10.37
2017-04-06T01:12:25.453Z,10.46
2017-04-06T01:13:26.050Z,10.38
2017-04-06T01:14:26.644Z,10.40
2017-04-06T01:15:27.247Z,10.34
2017-04-06T01:16:27.840Z,10.37
2017-04-06T01:17:28.435Z,10.23
2017-04-06T01:18:29.032Z,10.25
2017-04-06T01:19:29.634Z,10.26
2017-04-06T01:20:30.228Z,10.25
2017-04-06T01:21:30.823Z,10.26
2017-04-06T01:22:31.420Z,10.17
2017-04-06T01:23:32.018Z,10.19
2017-04-06T01:24:32.634Z,10.26
2017-04-06T01:25:33.227Z,10.26
2017-04-06T01:26:33.829Z,10.30
2017-04-06T01:27:34.421Z,10.33
2017-04-06T01:28:35.019Z,10.28
2017-04-06T01:29:35.619Z,10.31
2017-04-06T01:30:36.219Z,10.30
2017-04-06T01:31:36.818Z,10.31
2017-04-06T01:32:37.418Z,10.25
2017-04-06T01:33:38.010Z,10.33
2017-04-06T01:34:38.613Z,10.33
2017-04-06T01:35:39.205Z,10.37
2017-04-06T01:36:39.803Z,10.37
2017-04-06T01:37:40.414Z,10.42
2017-04-06T01:38:41.009Z,10.42
2017-04-06T01:39:41.607Z,10.46
2017-04-06T01:40:42.206Z,10.46
2017-04-06T01:41:42.802Z,10.40
2017-04-06T01:42:43.398Z,10.48
2017-04-06T01:43:43.993Z,10.54
2017-04-06T01:44:44.590Z,10.57
2017-04-06T01:45:45.197Z,10.54
2017-04-06T01:46:45.786Z,10.56
2017-04-06T01:47:46.389Z,10.48
2017-04-06T01:48:46.983Z,10.60
2017-04-06T01:49:47.580Z,10.54
2017-04-06T01:50:48.181Z,10.59
2017-04-06T01:51:48.775Z,10.56
2017-04-06T01:52:49.373Z,10.57
2017-04-06T01:53:49.968Z,10.59
2017-04-06T01:54:50.572Z,10.60
2017-04-06T01:55:51.171Z,10.60
2017-04-06T01:56:51.763Z,10.63
2017-04-06T01:57:52.366Z,10.67
2017-04-06T01:58:52.959Z,10.59
2017-04-06T01:59:53.556Z,10.71
2017-04-06T02:00:54.156Z,10.67
2017-04-06T02:01:54.749Z,10.69
2017-04-06T02:02:55.346Z,10.63
2017-04-06T02:03:55.949Z,10.67
2017-04-06T02:04:56.548Z,10.64
2017-04-06T02:05:57.147Z,10.61
2017-04-06T02:06:57.758Z,10.56
2017-04-06T02:07:58.354Z,10.49
2017-04-06T02:08:58.949Z,10.51
2017-04-06T02:09:59.568Z,10.42
2017-04-06T02:11:00.188Z,10.51
2017-04-06T02:12:00.794Z,10.46
2017-04-06T02:13:01.391Z,10.48
2017-04-06T02:14:02.010Z,10.46
2017-04-06T02:15:02.603Z,10.41
2017-04-06T02:16:03.205Z,10.33
2017-04-06T02:17:03.799Z,10.31
2017-04-06T02:18:04.396Z,10.28
2017-04-06T02:19:04.996Z,10.22
2017-04-06T02:20:05.591Z,10.30
2017-04-06T02:21:06.187Z,10.19
2017-04-06T02:22:06.789Z,10.19
2017-04-06T02:23:07.382Z,10.13
2017-04-06T02:24:07.977Z,10.13
2017-04-06T02:25:08.588Z,10.15
2017-04-06T02:26:09.185Z,10.04
2017-04-06T02:27:09.788Z,10.07
2017-04-06T02:28:10.382Z,10.02
2017-04-06T02:29:10.977Z,10.09
2017-04-06T02:30:11.823Z,10.10
2017-04-06T02:31:12.421Z,10.10
2017-04-06T02:32:13.015Z,10.13
2017-04-06T02:33:13.611Z,10.12
2017-04-06T02:34:14.221Z,10.05
2017-04-06T02:35:14.817Z,10.05
2017-04-06T02:36:15.415Z,10.10
2017-04-06T02:37:16.014Z,10.04
2017-04-06T02:38:16.607Z,9.98
2017-04-06T02:39:17.201Z,9.97
2017-04-06T02:40:17.798Z,9.94
2017-04-06T02:41:18.414Z,9.94
2017-04-06T02:42:19.005Z,9.95
2017-04-06T02:43:19.606Z,9.91
2017-04-06T02:44:20.204Z,9.97
2017-04-06T02:45:20.798Z,9.86
2017-04-06T02:46:21.397Z,9.94
2017-04-06T02:47:22.239Z,9.92
2017-04-06T02:48:22.833Z,9.84
2017-04-06T02:49:23.433Z,9.94
2017-04-06T02:50:24.026Z,9.83
2017-04-06T02:51:24.637Z,9.89
2017-04-06T02:52:25.232Z,9.87
2017-04-06T02:53:25.827Z,9.92
2017-04-06T02:54:26.421Z,9.83
2017-04-06T02:55:27.021Z,9.86
2017-04-06T02:56:27.613Z,9.83
2017-04-06T02:57:28.206Z,9.80
2017-04-06T02:58:28.803Z,9.82
2017-04-06T02:59:29.403Z,9.80
2017-04-06T03:00:29.999Z,9.79
2017-04-06T03:01:30.599Z,9.77
2017-04-06T03:02:31.191Z,9.76
2017-04-06T03:03:31.785Z,9.77
2017-04-06T03:04:32.381Z,9.74
2017-04-06T03:05:32.974Z,9.66
2017-04-06T03:06:33.574Z,9.61
2017-04-06T03:07:34.171Z,9.65
2017-04-06T03:08:34.765Z,9.41
2017-04-06T03:09:35.358Z,9.43
2017-04-06T03:10:35.953Z,9.44
2017-04-06T03:11:36.548Z,9.34
2017-04-06T03:12:37.159Z,9.39
2017-04-06T03:13:37.752Z,9.31
2017-04-06T03:14:38.348Z,9.31
2017-04-06T03:15:38.943Z,9.32
2017-04-06T03:16:39.538Z,9.26
2017-04-06T03:17:40.148Z,9.29
2017-04-06T03:18:40.745Z,9.25
2017-04-06T03:19:41.339Z,9.25
2017-04-06T03:20:41.932Z,9.21
2017-04-06T03:21:42.527Z,9.21
2017-04-06T03:22:43.128Z,9.21
2017-04-06T03:23:43.737Z,9.11
2017-04-06T03:24:44.339Z,9.22
2017-04-06T03:25:44.930Z,9.10
2017-04-06T03:26:45.525Z,9.14
2017-04-06T03:27:46.120Z,9.02
2017-04-06T03:28:46.720Z,8.99
2017-04-06T03:29:47.318Z,8.97
2017-04-06T03:30:47.910Z,8.92
2017-04-06T03:31:48.505Z,8.91
2017-04-06T03:32:49.116Z,8.95
2017-04-06T03:33:49.717Z,8.82
2017-04-06T03:34:50.318Z,8.85
2017-04-06T03:35:50.909Z,8.89
2017-04-06T03:36:51.505Z,8.88
2017-04-06T03:37:52.105Z,8.88
2017-04-06T03:38:52.720Z,8.87
2017-04-06T03:39:53.307Z,8.84
2017-04-06T03:40:53.907Z,8.91
2017-04-06T03:41:54.498Z,8.94
2017-04-06T03:42:55.108Z,8.87
2017-04-06T03:43:55.702Z,8.95
2017-04-06T03:44:56.296Z,8.85
2017-04-06T03:45:56.898Z,8.84
2017-04-06T03:46:57.490Z,8.84
2017-04-06T03:47:58.083Z,8.70
2017-04-06T03:48:58.679Z,8.71
2017-04-06T03:49:59.272Z,8.74
2017-04-06T03:50:59.866Z,8.70
2017-04-06T03:52:00.462Z,8.71
2017-04-06T03:53:01.054Z,8.70
2017-04-06T03:54:01.649Z,8.81
2017-04-06T03:55:02.244Z,8.84
2017-04-06T03:56:02.837Z,8.89
2017-04-06T03:57:03.430Z,8.87
2017-04-06T03:58:04.026Z,8.94
2017-04-06T03:59:04.635Z,8.92
2017-04-06T04:00:05.233Z,9.02
2017-04-06T04:01:05.825Z,8.95
2017-04-06T04:02:06.427Z,8.89
2017-04-06T04:03:07.024Z,8.89
2017-04-06T04:04:07.615Z,9.00
2017-04-06T04:05:08.211Z,8.94
2017-04-06T04:06:08.806Z,8.89
2017-04-06T04:07:09.399Z,9.02
2017-04-06T04:08:10.008Z,8.95
2017-04-06T04:09:10.603Z,8.94
2017-04-06T04:10:11.204Z,9.02
2017-04-06T04:11:11.794Z,9.08
2017-04-06T04:12:12.391Z,9.11
2017-04-06T04:13:12.984Z,9.10
2017-04-06T04:14:13.584Z,9.06
2017-04-06T04:15:14.181Z,9.19
2017-04-06T04:16:14.776Z,9.28
2017-04-06T04:17:15.369Z,9.28
2017-04-06T04:18:15.968Z,9.32
2017-04-06T04:19:16.577Z,9.41
2017-04-06T04:20:17.178Z,9.31
2017-04-06T04:21:17.775Z,9.39
2017-04-06T04:22:18.368Z,9.34
2017-04-06T04:23:18.962Z,9.34
2017-04-06T04:24:19.563Z,9.40
2017-04-06T04:25:20.159Z,9.43
2017-04-06T04:26:20.754Z,9.40
2017-04-06T04:27:21.348Z,9.43
2017-04-06T04:28:21.981Z,9.46
2017-04-06T04:29:22.570Z,9.50
2017-04-06T04:30:23.163Z,9.43
2017-04-06T04:31:23.758Z,9.41
2017-04-06T04:32:24.375Z,9.37
2017-04-06T04:33:24.967Z,9.34
2017-04-06T04:34:25.562Z,9.46
2017-04-06T04:35:26.162Z,9.43
2017-04-06T04:36:26.754Z,9.40
2017-04-06T04:37:27.354Z,9.41
2017-04-06T04:38:27.945Z,9.32
2017-04-06T04:39:28.541Z,9.44
2017-04-06T04:40:29.132Z,9.34
2017-04-06T04:41:29.726Z,9.40
2017-04-06T04:42:30.321Z,9.34
2017-04-06T04:43:30.920Z,9.40
2017-04-06T04:44:31.517Z,9.40
2017-04-06T04:45:32.116Z,9.43
2017-04-06T04:46:32.708Z,9.44
2017-04-06T04:47:33.304Z,9.36
2017-04-06T04:48:33.898Z,9.39
2017-04-06T04:49:34.496Z,9.40
2017-04-06T04:50:35.090Z,9.46
2017-04-06T04:51:35.689Z,9.40
2017-04-06T04:52:36.284Z,9.40
2017-04-06T04:53:36.878Z,9.44
2017-04-06T04:54:37.474Z,9.47
2017-04-06T04:55:38.069Z,9.47
2017-04-06T04:56:38.666Z,9.43
2017-04-06T04:57:39.262Z,9.44
2017-04-06T04:58:39.861Z,9.50
2017-04-06T04:59:40.472Z,9.55
2017-04-06T05:00:41.069Z,9.44
2017-04-06T05:01:41.669Z,9.43
2017-04-06T05:02:42.281Z,9.46
2017-04-06T05:03:42.883Z,9.41
2017-04-06T05:04:43.479Z,9.43
2017-04-06T05:05:44.072Z,9.43
2017-04-06T05:06:44.669Z,9.44
2017-04-06T05:07:45.269Z,9.50
2017-04-06T05:08:45.865Z,9.47
2017-04-06T05:09:46.466Z,9.58
2017-04-06T05:10:47.067Z,9.61
2017-04-06T05:11:47.660Z,9.62
2017-04-06T05:12:48.257Z,9.58
2017-04-06T05:13:48.874Z,9.59
2017-04-06T05:14:49.476Z,9.55
2017-04-06T05:15:50.075Z,9.61
2017-04-06T05:16:50.666Z,9.54
2017-04-06T05:17:51.261Z,9.61
2017-04-06T05:18:51.858Z,9.61
2017-04-06T05:19:52.471Z,9.59
2017-04-06T05:20:53.074Z,9.61
2017-04-06T05:21:53.677Z,9.56
2017-04-06T05:22:54.270Z,9.58
2017-04-06T05:23:54.873Z,9.64
2017-04-06T05:24:55.466Z,9.64
2017-04-06T05:25:56.068Z,9.62
2017-04-06T05:26:56.669Z,9.58
2017-04-06T05:27:57.263Z,9.62
2017-04-06T05:28:57.861Z,9.59
2017-04-06T05:29:58.465Z,9.61
2017-04-06T05:30:59.061Z,9.61
2017-04-06T05:31:59.658Z,9.66
2017-04-06T05:33:00.278Z,9.65
2017-04-06T05:34:00.872Z,9.74
2017-04-06T05:35:01.469Z,9.73
2017-04-06T05:36:02.067Z,9.74
2017-04-06T05:37:02.666Z,9.72
2017-04-06T05:38:03.278Z,9.69
2017-04-06T05:39:03.876Z,9.76
2017-04-06T05:40:04.474Z,9.76
2017-04-06T05:41:05.087Z,9.80
2017-04-06T05:42:05.684Z,9.77
2017-04-06T05:43:06.284Z,9.79
2017-04-06T05:44:06.881Z,9.76
2017-04-06T05:45:07.479Z,9.79
2017-04-06T05:46:08.091Z,9.77
2017-04-06T05:47:08.690Z,9.80
2017-04-06T05:48:09.291Z,9.72
2017-04-06T05:49:09.886Z,9.73
2017-04-06T05:50:10.483Z,9.73
2017-04-06T05:51:11.087Z,9.74
2017-04-06T05:52:11.700Z,9.77
2017-04-06T05:53:12.298Z,9.77
2017-04-06T05:54:12.896Z,9.80
2017-04-06T05:55:13.514Z,9.80
2017-04-06T05:56:14.112Z,9.74
2017-04-06T05:57:14.711Z,9.79
2017-04-06T05:58:15.324Z,9.83
2017-04-06T05:59:15.929Z,9.82
2017-04-06T06:00:16.525Z,9.89
2017-04-06T06:01:17.123Z,9.87
2017-04-06T06:02:17.728Z,9.92
2017-04-06T06:03:18.331Z,10.04
2017-04-06T06:04:18.934Z,9.92
2017-04-06T06:05:19.529Z,9.98
2017-04-06T06:06:20.134Z,9.99
2017-04-06T06:07:20.729Z,9.95
2017-04-06T06:08:21.351Z,9.97
2017-04-06T06:09:21.951Z,9.98
2017-04-06T06:10:22.549Z,9.97
2017-04-06T06:11:23.149Z,9.95
2017-04-06T06:12:23.753Z,9.98
2017-04-06T06:13:24.354Z,9.92
2017-04-06T06:14:24.951Z,9.95
2017-04-06T06:15:25.550Z,9.89
2017-04-06T06:16:26.150Z,9.97
2017-04-06T06:17:26.749Z,9.98
2017-04-06T06:18:27.349Z,10.02
2017-04-06T06:19:28.001Z,10.07
2017-04-06T06:20:28.568Z,10.01
2017-04-06T06:21:29.167Z,10.12
2017-04-06T06:22:29.775Z,10.10
2017-04-06T06:23:30.377Z,9.97
2017-04-06T06:24:30.980Z,9.99
2017-04-06T06:25:31.582Z,10.01
2017-04-06T06:26:32.179Z,10.13
2017-04-06T06:27:32.778Z,10.10
2017-04-06T06:28:33.381Z,10.05
2017-04-06T06:29:33.982Z,10.09
2017-04-06T06:30:34.586Z,9.99
2017-04-06T06:31:35.183Z,10.01
2017-04-06T06:32:35.789Z,10.04
2017-04-06T06:33:36.385Z,10.02
2017-04-06T06:34:37.001Z,10.07
2017-04-06T06:35:37.601Z,10.07
2017-04-06T06:36:38.203Z,10.07
2017-04-06T06:37:38.808Z,10.07
2017-04-06T06:38:39.405Z,10.04
2017-04-06T06:39:40.005Z,10.04
2017-04-06T06:40:40.610Z,10.15
2017-04-06T06:41:41.208Z,10.10
2017-04-06T06:42:41.813Z,10.10
2017-04-06T06:43:42.408Z,10.22
2017-04-06T06:44:43.024Z,10.20
2017-04-06T06:45:43.624Z,10.17
2017-04-06T06:46:44.223Z,10.17
2017-04-06T06:47:44.823Z,10.19
2017-04-06T06:48:45.424Z,10.15
2017-04-06T06:49:46.031Z,10.16
2017-04-06T06:50:46.627Z,10.19
2017-04-06T06:51:47.227Z,10.10
2017-04-06T06:52:47.828Z,10.13
2017-04-06T06:53:48.429Z,10.19
2017-04-06T06:54:49.032Z,10.23
2017-04-06T06:55:49.650Z,10.22
2017-04-06T06:56:50.251Z,10.28
2017-04-06T06:57:50.868Z,10.33
2017-04-06T06:58:51.470Z,10.28
2017-04-06T06:59:52.071Z,10.17
2017-04-06T07:00:52.672Z,10.28
2017-04-06T07:01:53.275Z,10.17
2017-04-06T07:02:53.891Z,10.33
2017-04-06T07:03:54.498Z,10.25
2017-04-06T07:04:55.097Z,10.23
2017-04-06T07:05:55.704Z,10.34
2017-04-06T07:06:56.304Z,10.26
2017-04-06T07:07:56.907Z,10.19
2017-04-06T07:08:57.506Z,10.20
2017-04-06T07:09:58.128Z,10.19
2017-04-06T07:10:58.733Z,10.19
2017-04-06T07:11:59.334Z,10.22
2017-04-06T07:12:59.938Z,10.13
2017-04-06T07:14:00.542Z,10.19
2017-04-06T07:15:01.142Z,10.23
2017-04-06T07:16:01.759Z,10.17
2017-04-06T07:17:02.366Z,10.16
2017-04-06T07:18:02.966Z,10.25
2017-04-06T07:19:03.569Z,10.23
2017-04-06T07:20:04.175Z,10.20
2017-04-06T07:21:04.773Z,10.22
2017-04-06T07:22:05.375Z,10.15
2017-04-06T07:23:05.976Z,10.17
2017-04-06T07:24:06.593Z,10.34
2017-04-06T07:25:07.193Z,10.34
2017-04-06T07:26:07.796Z,10.46
2017-04-06T07:27:08.411Z,10.41
2017-04-06T07:28:09.015Z,10.38
2017-04-06T07:29:09.622Z,10.53
2017-04-06T07:30:10.220Z,10.53
2017-04-06T07:31:10.825Z,10.57
2017-04-06T07:32:11.423Z,10.56
2017-04-06T07:33:12.023Z,10.63
2017-04-06T07:34:12.626Z,10.75
2017-04-06T07:35:13.243Z,10.69
2017-04-06T07:36:13.850Z,10.86
2017-04-06T07:37:14.449Z,11.04
2017-04-06T07:38:15.056Z,11.12
2017-04-06T07:39:15.675Z,11.35
2017-04-06T07:40:16.279Z,11.35
2017-04-06T07:41:16.884Z,11.44
2017-04-06T07:42:17.485Z,11.57
2017-04-06T07:43:18.085Z,11.75
2017-04-06T07:44:18.687Z,11.77
2017-04-06T07:45:19.297Z,11.88
2017-04-06T07:46:19.921Z,12.07
2017-04-06T07:47:20.501Z,12.15
2017-04-06T07:48:21.104Z,12.27
2017-04-06T07:49:21.713Z,12.46
2017-04-06T07:50:22.315Z,12.76
2017-04-06T07:51:22.918Z,13.00
2017-04-06T07:52:23.528Z,13.18
2017-04-06T07:53:24.130Z,13.30
2017-04-06T07:54:24.734Z,13.53
2017-04-06T07:55:25.338Z,13.57
2017-04-06T07:56:25.943Z,13.57
2017-04-06T07:57:26.547Z,13.96
2017-04-06T07:58:27.152Z,14.26
2017-04-06T07:59:27.766Z,14.58
2017-04-06T08:00:28.369Z,14.68
2017-04-06T08:01:28.990Z,14.70
2017-04-06T08:02:29.598Z,14.85
2017-04-06T08:03:30.205Z,14.82
2017-04-06T08:04:30.817Z,14.88
2017-04-06T08:05:31.421Z,14.81
2017-04-06T08:06:32.027Z,14.59
2017-04-06T08:07:32.635Z,14.48
2017-04-06T08:08:33.243Z,14.84
2017-04-06T08:09:33.854Z,15.14
2017-04-06T08:10:34.469Z,15.79
2017-04-06T08:11:35.078Z,16.43
2017-04-06T08:12:35.690Z,17.29
2017-04-06T08:13:36.296Z,18.04
2017-04-06T08:14:36.913Z,19.08
2017-04-06T08:15:37.527Z,19.62
2017-04-06T08:16:38.161Z,20.21
2017-04-06T08:17:38.793Z,20.44
2017-04-06T08:18:39.421Z,20.10
2017-04-06T08:19:40.031Z,19.76
2017-04-06T08:20:40.645Z,19.33
2017-04-06T08:21:41.257Z,18.86
2017-04-06T08:22:41.870Z,18.37
2017-04-06T08:23:42.481Z,18.03
2017-04-06T08:24:43.098Z,17.49
2017-04-06T08:25:43.709Z,17.24
2017-04-06T08:26:44.318Z,16.86
2017-04-06T08:27:44.929Z,16.72
2017-04-06T08:28:45.542Z,16.60
2017-04-06T08:29:46.155Z,16.72
2017-04-06T08:30:46.787Z,16.78
2017-04-06T08:31:47.397Z,16.84
2017-04-06T08:32:48.011Z,16.87
2017-04-06T08:33:48.619Z,16.93
2017-04-06T08:34:49.236Z,17.12
2017-04-06T08:35:49.843Z,17.15
2017-04-06T08:36:50.456Z,17.04
2017-04-06T08:37:51.064Z,16.93
2017-04-06T08:38:51.675Z,16.97
2017-04-06T08:39:52.289Z,17.14
2017-04-06T08:40:52.903Z,17.36
2017-04-06T08:41:53.518Z,17.45
2017-04-06T08:42:54.122Z,17.49
2017-04-06T08:43:54.738Z,17.51
2017-04-06T08:44:55.345Z,17.52
2017-04-06T08:45:55.956Z,17.56
2017-04-06T08:46:56.566Z,17.54
2017-04-06T08:47:57.180Z,17.70
2017-04-06T08:48:57.815Z,17.83
2017-04-06T08:49:58.397Z,17.82
2017-04-06T08:50:59.009Z,17.80
2017-04-06T08:51:59.622Z,17.71
2017-04-06T08:53:00.248Z,17.98
2017-04-06T08:54:00.860Z,18.08
2017-04-06T08:55:01.470Z,18.44
2017-04-06T08:56:02.088Z,18.74
2017-04-06T08:57:02.722Z,19.37
2017-04-06T08:58:03.330Z,20.55
2017-04-06T08:59:03.944Z,21.72
2017-04-06T09:00:04.573Z,22.87
2017-04-06T09:01:05.186Z,23.40
2017-04-06T09:02:05.802Z,24.06
2017-04-06T09:03:06.423Z,24.58
2017-04-06T09:04:07.037Z,25.25
2017-04-06T09:05:07.660Z,25.99
2017-04-06T09:06:08.276Z,26.78
2017-04-06T09:07:08.899Z,27.54
2017-04-06T09:08:09.521Z,28.37
2017-04-06T09:09:10.135Z,29.14
2017-04-06T09:10:10.759Z,29.66
2017-04-06T09:11:11.377Z,29.82
2017-04-06T09:12:11.996Z,29.54
2017-04-06T09:13:12.618Z,29.65
2017-04-06T09:14:13.254Z,29.90
2017-04-06T09:15:13.877Z,30.10
2017-04-06T09:16:14.505Z,30.19
2017-04-06T09:17:15.132Z,29.98
2017-04-06T09:18:15.753Z,29.88
2017-04-06T09:19:16.377Z,29.75
2017-04-06T09:20:17.005Z,29.68
2017-04-06T09:21:17.625Z,29.65
2017-04-06T09:22:18.265Z,29.14
2017-04-06T09:23:18.900Z,28.30
2017-04-06T09:24:19.524Z,27.78
2017-04-06T09:25:20.148Z,27.42
2017-04-06T09:26:20.793Z,27.35
2017-04-06T09:27:21.409Z,26.93
2017-04-06T09:28:22.037Z,26.16
2017-04-06T09:29:22.675Z,25.75
2017-04-06T09:30:23.293Z,25.41
2017-04-06T09:31:23.916Z,25.28
2017-04-06T09:32:24.549Z,25.58
2017-04-06T09:33:25.164Z,26.19
2017-04-06T09:34:25.786Z,26.81
2017-04-06T09:35:26.405Z,27.00
2017-04-06T09:36:27.027Z,26.43
2017-04-06T09:37:27.664Z,25.48
2017-04-06T09:38:28.284Z,24.55
2017-04-06T09:39:28.905Z,24.01
2017-04-06T09:40:29.528Z,23.98
2017-04-06T09:41:30.148Z,24.80
2017-04-06T09:42:30.770Z,25.60
2017-04-06T09:43:31.389Z,26.37
2017-04-06T09:44:32.009Z,26.81
2017-04-06T09:45:32.627Z,26.37
2017-04-06T09:46:33.247Z,25.44
2017-04-06T09:47:33.882Z,24.85
2017-04-06T09:48:34.508Z,24.77
2017-04-06T09:49:35.130Z,24.85
2017-04-06T09:50:35.770Z,24.78
2017-04-06T09:51:36.386Z,24.99
2017-04-06T09:52:37.006Z,25.58
2017-04-06T09:53:37.629Z,26.62
2017-04-06T09:54:38.246Z,27.36
2017-04-06T09:55:38.868Z,28.01
2017-04-06T09:56:39.490Z,28.69
2017-04-06T09:57:40.111Z,29.22
2017-04-06T09:58:40.732Z,29.79
2017-04-06T09:59:41.360Z,30.30
2017-04-06T10:00:41.980Z,30.66
2017-04-06T10:01:42.603Z,30.92
2017-04-06T10:02:43.226Z,31.24
2017-04-06T10:03:43.858Z,31.85
2017-04-06T10:04:44.483Z,32.58
2017-04-06T10:05:45.110Z,33.01
2017-04-06T10:06:45.749Z,33.05
2017-04-06T10:07:46.380Z,32.89
2017-04-06T10:08:47.004Z,32.85
2017-04-06T10:09:47.630Z,32.63
2017-04-06T10:10:48.261Z,32.49
2017-04-06T10:11:48.891Z,32.49
2017-04-06T10:12:49.515Z,31.96
2017-04-06T10:13:50.144Z,31.29
2017-04-06T10:14:50.784Z,31.05
2017-04-06T10:15:51.408Z,30.73
2017-04-06T10:16:52.033Z,30.32
2017-04-06T10:17:52.657Z,30.06
2017-04-06T10:18:53.288Z,29.95
2017-04-06T10:19:53.910Z,29.66
2017-04-06T10:20:54.543Z,29.16
2017-04-06T10:21:55.163Z,28.22
2017-04-06T10:22:55.797Z,26.92
2017-04-06T10:23:56.419Z,25.63
2017-04-06T10:24:57.034Z,24.45
2017-04-06T10:25:57.653Z,23.25
2017-04-06T10:26:58.276Z,22.20
2017-04-06T10:27:58.903Z,21.37
2017-04-06T10:28:59.542Z,21.00
2017-04-06T10:30:00.157Z,20.60
2017-04-06T10:31:00.776Z,20.39
2017-04-06T10:32:01.397Z,19.92
2017-04-06T10:33:02.027Z,19.69
2017-04-06T10:34:02.650Z,19.34
2017-04-06T10:35:03.288Z,19.16
2017-04-06T10:36:03.895Z,18.89
2017-04-06T10:37:04.526Z,18.52
2017-04-06T10:38:05.141Z,18.29
2017-04-06T10:39:05.763Z,18.18
2017-04-06T10:40:06.393Z,18.11
2017-04-06T10:41:07.009Z,17.94
2017-04-06T10:42:07.642Z,17.92
2017-04-06T10:43:08.254Z,17.87
2017-04-06T10:44:08.867Z,17.87
2017-04-06T10:45:09.495Z,17.86
2017-04-06T10:46:10.107Z,17.87
2017-04-06T10:47:10.722Z,17.70
2017-04-06T10:48:11.335Z,17.52
2017-04-06T10:49:11.947Z,17.36
2017-04-06T10:50:12.564Z,17.29
2017-04-06T10:51:13.176Z,17.29
2017-04-06T10:52:13.785Z,17.27
2017-04-06T10:53:14.397Z,17.38
2017-04-06T10:54:15.024Z,17.45
2017-04-06T10:55:15.635Z,17.49
2017-04-06T10:56:16.248Z,17.48
2017-04-06T10:57:16.861Z,17.42
2017-04-06T10:58:17.470Z,17.36
2017-04-06T10:59:18.097Z,17.34
2017-04-06T11:00:18.708Z,17.24
2017-04-06T11:01:19.334Z,17.31
2017-04-06T11:02:19.946Z,17.33
2017-04-06T11:03:20.556Z,17.34
2017-04-06T11:04:21.172Z,17.45
2017-04-06T11:05:21.798Z,17.24
2017-04-06T11:06:22.415Z,17.05
2017-04-06T11:07:23.023Z,16.72
2017-04-06T11:08:23.649Z,16.54
2017-04-06T11:09:24.258Z,16.47
2017-04-06T11:10:24.867Z,16.60
2017-04-06T11:11:25.477Z,16.58
2017-04-06T11:12:26.104Z,16.69
2017-04-06T11:13:26.720Z,16.83
2017-04-06T11:14:27.333Z,16.79
2017-04-06T11:15:27.959Z,16.83
2017-04-06T11:16:28.568Z,16.87
2017-04-06T11:17:29.178Z,16.87
2017-04-06T11:18:29.788Z,16.89
2017-04-06T11:19:30.398Z,16.96
2017-04-06T11:20:31.008Z,16.91
2017-04-06T11:21:31.634Z,16.87
2017-04-06T11:22:32.251Z,16.84
2017-04-06T11:23:32.879Z,16.89
2017-04-06T11:24:33.509Z,16.78
2017-04-06T11:25:34.117Z,16.71
2017-04-06T11:26:34.742Z,16.74
2017-04-06T11:27:35.372Z,16.65
2017-04-06T11:28:35.995Z,16.56
2017-04-06T11:29:36.611Z,16.58
2017-04-06T11:30:37.220Z,16.51
2017-04-06T11:31:37.830Z,16.42
2017-04-06T11:32:38.443Z,16.58
2017-04-06T11:33:39.069Z,16.56
2017-04-06T11:34:39.676Z,16.50
2017-04-06T11:35:40.301Z,16.47
2017-04-06T11:36:40.925Z,16.43
2017-04-06T11:37:41.534Z,16.43
2017-04-06T11:38:42.145Z,16.39
2017-04-06T11:39:42.759Z,16.24
2017-04-06T11:40:43.364Z,16.16
2017-04-06T11:41:43.971Z,16.16
2017-04-06T11:42:44.578Z,16.09
2017-04-06T11:43:45.186Z,16.08
2017-04-06T11:44:45.795Z,16.23
2017-04-06T11:45:46.403Z,16.17
2017-04-06T11:46:47.009Z,16.01
2017-04-06T11:47:47.617Z,15.95
2017-04-06T11:48:48.230Z,15.82
2017-04-06T11:49:48.836Z,15.73
2017-04-06T11:50:49.444Z,15.54
2017-04-06T11:51:50.052Z,15.49
2017-04-06T11:52:50.658Z,15.39
2017-04-06T11:53:51.272Z,15.22
2017-04-06T11:54:51.881Z,15.14
2017-04-06T11:55:52.492Z,15.10
2017-04-06T11:56:53.097Z,15.07
2017-04-06T11:57:53.721Z,14.88
2017-04-06T11:58:54.328Z,14.81
2017-04-06T11:59:54.936Z,14.82
2017-04-06T12:00:55.543Z,14.88
2017-04-06T12:01:56.153Z,14.99
2017-04-06T12:02:56.761Z,15.09
2017-04-06T12:03:57.384Z,15.17
2017-04-06T12:04:58.002Z,15.21
2017-04-06T12:05:58.609Z,15.18
2017-04-06T12:06:59.215Z,15.25
2017-04-06T12:07:59.822Z,15.14
2017-04-06T12:09:00.436Z,15.17
2017-04-06T12:10:01.042Z,15.22
2017-04-06T12:11:01.648Z,15.29
2017-04-06T12:12:02.255Z,15.40
2017-04-06T12:13:02.876Z,15.39
2017-04-06T12:14:03.488Z,15.31
2017-04-06T12:15:04.091Z,15.21
2017-04-06T12:16:04.701Z,15.19
2017-04-06T12:17:05.321Z,15.15
2017-04-06T12:18:05.934Z,15.11
2017-04-06T12:19:06.556Z,15.22
2017-04-06T12:20:07.161Z,15.22
2017-04-06T12:21:07.773Z,15.24
2017-04-06T12:22:08.380Z,15.21
2017-04-06T12:23:08.999Z,15.22
2017-04-06T12:24:09.612Z,15.28
2017-04-06T12:25:10.215Z,15.19
2017-04-06T12:26:10.823Z,15.24
2017-04-06T12:27:11.429Z,15.24
2017-04-06T12:28:12.033Z,15.21
2017-04-06T12:29:12.656Z,15.21
2017-04-06T12:30:13.262Z,15.18
2017-04-06T12:31:13.870Z,15.35
2017-04-06T12:32:14.479Z,15.47
2017-04-06T12:33:15.086Z,15.65
2017-04-06T12:34:15.691Z,15.77
2017-04-06T12:35:16.298Z,15.90
2017-04-06T12:36:16.920Z,15.90
2017-04-06T12:37:17.530Z,15.86
2017-04-06T12:38:18.150Z,15.80
2017-04-06T12:39:18.757Z,15.73
2017-04-06T12:40:19.363Z,15.70
2017-04-06T12:41:19.970Z,15.61
2017-04-06T12:42:20.574Z,15.64
2017-04-06T12:43:21.189Z,15.75
2017-04-06T12:44:21.800Z,15.88
2017-04-06T12:45:22.421Z,16.08
2017-04-06T12:46:23.029Z,16.33
2017-04-06T12:47:23.637Z,16.43
2017-04-06T12:48:24.241Z,16.68
2017-04-06T12:49:24.848Z,16.87
2017-04-06T12:50:25.456Z,17.08
2017-04-06T12:51:26.062Z,17.24
2017-04-06T12:52:26.671Z,17.33
2017-04-06T12:53:27.278Z,17.31
2017-04-06T12:54:27.900Z,17.22
2017-04-06T12:55:28.508Z,17.11
2017-04-06T12:56:29.114Z,16.90
2017-04-06T12:57:29.721Z,16.66
2017-04-06T12:58:30.349Z,16.50
2017-04-06T12:59:30.959Z,16.24
2017-04-06T13:00:31.563Z,15.90
2017-04-06T13:01:32.184Z,15.70
2017-04-06T13:02:32.791Z,15.55
2017-04-06T13:03:33.402Z,15.29
2017-04-06T13:04:34.012Z,15.18
2017-04-06T13:05:34.617Z,15.15
2017-04-06T13:06:35.230Z,15.09
2017-04-06T13:07:35.857Z,14.89